Date,TemperatureHighF,TemperatureAvgF,TemperatureLowF,DewpointHighF,DewpointAvgF,DewpointLowF,HumidityHigh,HumidityAvg,HumidityLow,PressureMaxIn,PressureMinIn,WindSpeedMaxMPH,WindSpeedAvgMPH,GustSpeedMaxMPH,PrecipitationSumIn
2013-1-1,28.0,28.0,28.0,21.0,20.0,19.0,75,71,69,0.00,40.00,9,8,15,0.00
2013-1-2,27.0,21.5,17.0,12.0,8.5,6.0,60,56,50,0.00,40.00,12,8,17,0.00
2013-1-3,29.0,26.2,19.0,22.0,17.5,9.0,79,69,62,0.00,40.00,11,7,16,0.00
2013-1-4,35.0,25.8,16.0,22.0,16.6,9.0,77,68,49,0.00,40.00,16,10,27,0.00
2013-1-5,35.0,29.7,24.0,30.0,22.8,19.0,81,75,67,0.00,40.00,13,10,21,0.00
2013-1-6,35.0,31.3,28.0,31.0,25.0,21.0,82,76,72,0.00,40.00,12,8,18,0.00
2013-1-7,36.0,26.1,19.0,21.0,18.7,17.0,89,75,48,0.00,40.00,17,10,26,0.00
2013-1-8,39.0,32.3,28.0,27.0,24.4,23.0,82,72,62,0.00,40.00,9,8,15,0.00
2013-1-9,51.0,41.8,31.0,30.0,25.3,18.0,72,54,31,0.00,40.00,19,10,29,0.00
2013-1-10,43.0,38.4,27.0,38.0,29.3,21.0,92,71,49,0.00,40.00,15,10,26,0.00
2013-1-11,53.0,50.1,44.0,51.0,47.4,41.0,92,90,81,0.00,40.00,13,11,22,0.00
2013-1-12,53.0,45.3,36.0,46.0,35.8,32.0,90,70,53,0.00,40.00,17,8,22,0.00
2013-1-13,36.0,30.4,24.0,34.0,28.3,20.0,92,91,82,0.00,40.00,11,8,17,0.00
2013-1-14,24.0,20.8,18.0,16.0,14.4,13.0,80,75,68,0.00,40.00,7,4,12,0.00
2013-1-15,29.0,20.2,14.0,21.0,14.1,11.0,87,77,52,0.00,40.00,4,2,6,0.00
2013-1-16,35.0,29.0,21.0,26.0,22.6,18.0,89,77,67,0.00,40.00,9,6,14,0.00
2013-1-17,31.0,28.9,22.0,15.0,13.2,10.0,58,52,50,0.00,40.00,15,12,26,0.00
2013-1-18,39.0,34.6,21.0,23.0,20.4,10.0,75,56,51,0.00,40.00,26,16,37,0.00
2013-1-19,48.0,43.3,39.0,32.0,26.8,20.0,58,52,46,0.00,40.00,27,20,37,0.00
2013-1-20,24.0,20.3,17.0,9.0,7.3,5.0,62,56,53,0.00,40.00,13,9,26,0.00
2013-1-21,17.0,14.8,12.0,4.0,1.4,-3.0,58,54,51,0.00,40.00,18,14,26,0.00
2013-1-22,11.0,8.3,7.0,-2.0,-2.7,-4.0,65,60,54,0.00,40.00,14,12,20,0.00
2013-1-23,21.0,16.3,10.0,13.0,5.9,-1.0,81,62,56,0.00,40.00,16,10,27,0.00
2013-1-24,20.0,16.9,14.0,13.0,11.6,10.0,84,79,70,0.00,40.00,15,9,26,0.00
2013-6-12,75.0,71.7,65.0,72.0,68.7,62.0,90,89,89,0.00,40.00,14,12,20,0.00
2013-6-13,64.0,60.8,58.0,59.0,55.8,52.0,91,84,65,0.00,40.00,13,10,26,0.00
2013-6-14,66.0,59.8,56.0,55.0,53.4,52.0,89,79,63,0.00,40.00,7,6,11,0.00
2013-6-15,71.0,64.5,58.0,65.0,60.0,55.0,90,85,80,0.00,40.00,6,3,8,0.00
2013-6-16,81.0,74.2,68.0,65.0,64.2,64.0,85,71,56,0.00,40.00,7,5,12,0.00
2013-6-17,88.0,76.8,65.0,67.0,59.9,51.0,90,62,28,0.00,40.00,7,3,11,0.00
2013-6-18,62.0,59.5,57.0,59.0,56.0,53.0,90,88,87,0.00,40.00,4,2,6,0.00
2013-7-2,62.0,62.0,62.0,60.0,60.0,60.0,91,91,91,0.00,40.00,6,6,12,0.00
2013-7-21,87.0,86.5,86.0,60.0,60.0,60.0,42,41,40,0.00,40.00,7,6,9,0.00
2013-7-25,55.0,55.0,55.0,52.0,52.0,52.0,92,92,92,0.00,40.00,0,0,0,0.00